createdAt,value
2022-10-31T00:01:33.145Z,15.27
2022-10-31T00:04:01.488Z,15.53
2022-10-31T00:06:29.442Z,16.50
2022-10-31T00:08:59.650Z,16.30
2022-10-31T00:11:27.638Z,15.23
2022-10-31T00:13:55.747Z,15.30
2022-10-31T00:16:26.808Z,15.67
2022-10-31T00:18:56.211Z,15.47
2022-10-31T00:21:24.760Z,15.00
2022-10-31T00:23:52.587Z,14.50
2022-10-31T00:26:20.784Z,14.37
2022-10-31T00:28:49.468Z,15.47
2022-10-31T00:31:17.187Z,15.87
2022-10-31T00:33:46.274Z,15.13
2022-10-31T00:36:16.207Z,16.77
2022-10-31T00:38:44.997Z,15.90
2022-10-31T00:41:15.899Z,15.10
2022-10-31T00:43:44.349Z,15.73
2022-10-31T00:46:12.279Z,15.47
2022-10-31T00:48:40.111Z,14.60
2022-10-31T00:51:09.543Z,14.73
2022-10-31T00:53:37.250Z,14.40
2022-10-31T00:56:05.714Z,14.50
2022-10-31T00:58:33.473Z,14.13
2022-10-31T01:01:01.262Z,14.30
2022-10-31T01:03:31.016Z,13.83
2022-10-31T01:06:00.731Z,14.17
2022-10-31T01:08:30.111Z,14.17
2022-10-31T01:11:02.876Z,14.07
2022-10-31T01:13:30.792Z,14.07
2022-10-31T01:15:59.600Z,13.47
2022-10-31T01:18:27.425Z,14.07
2022-10-31T01:21:02.886Z,13.97
2022-10-31T01:23:32.363Z,13.53
2022-10-31T01:26:05.632Z,13.90
2022-10-31T01:28:33.403Z,14.03
2022-10-31T01:31:05.995Z,14.13
2022-10-31T01:33:34.016Z,14.07
2022-10-31T01:36:01.797Z,14.10
2022-10-31T01:38:29.982Z,13.13
2022-10-31T01:40:59.148Z,13.67
2022-10-31T01:43:43.949Z,13.37
2022-10-31T01:46:12.780Z,13.80
2022-10-31T01:48:43.401Z,13.67
2022-10-31T01:51:14.542Z,13.50
2022-10-31T01:53:43.749Z,13.40
2022-10-31T01:56:13.552Z,13.00
2022-10-31T01:58:41.911Z,13.03
2022-10-31T02:01:10.039Z,13.00
2022-10-31T02:03:38.044Z,13.87
2022-10-31T02:06:10.284Z,13.43
2022-10-31T02:08:39.854Z,14.73
2022-10-31T02:11:09.372Z,13.50
2022-10-31T02:13:39.410Z,14.20
2022-10-31T02:16:07.636Z,13.47
2022-10-31T02:18:35.496Z,13.80
2022-10-31T02:21:12.745Z,14.53
2022-10-31T02:24:10.196Z,14.67
2022-10-31T02:26:53.415Z,14.50
2022-10-31T02:29:49.529Z,14.70
2022-10-31T02:32:22.471Z,14.20
2022-10-31T02:34:58.683Z,13.97
2022-10-31T02:37:34.306Z,14.10
2022-10-31T02:40:12.456Z,14.07
2022-10-31T02:42:45.956Z,13.40
2022-10-31T02:45:19.897Z,13.60
2022-10-31T02:47:53.643Z,13.63
2022-10-31T02:50:26.098Z,12.83
2022-10-31T02:52:54.788Z,12.67
2022-10-31T02:55:46.482Z,11.77
2022-10-31T02:58:16.615Z,12.27
2022-10-31T03:01:01.779Z,12.27
2022-10-31T03:03:39.397Z,10.83
2022-10-31T03:06:15.659Z,11.23
2022-10-31T03:08:50.153Z,11.73
2022-10-31T03:11:22.676Z,11.83
2022-10-31T03:13:54.242Z,11.37
2022-10-31T03:16:29.037Z,12.20
2022-10-31T03:19:03.729Z,11.60
2022-10-31T03:21:36.246Z,12.20
2022-10-31T03:24:07.175Z,11.60
2022-10-31T03:26:37.928Z,11.80
2022-10-31T03:29:08.634Z,11.37
2022-10-31T03:31:40.838Z,10.90
2022-10-31T03:34:11.899Z,12.10
2022-10-31T03:36:42.005Z,11.13
2022-10-31T03:39:13.534Z,10.87
2022-10-31T03:41:45.249Z,10.60
2022-10-31T03:44:16.888Z,11.13
2022-10-31T03:46:45.792Z,10.50
2022-10-31T03:49:16.053Z,10.80
2022-10-31T03:51:49.796Z,9.90
2022-10-31T03:54:26.367Z,10.23
2022-10-31T03:56:58.010Z,10.40
2022-10-31T03:59:30.080Z,10.63
2022-10-31T04:02:02.909Z,10.40
2022-10-31T04:04:32.566Z,10.67
2022-10-31T04:07:03.302Z,9.87
2022-10-31T04:09:35.343Z,11.70
2022-10-31T04:12:07.511Z,10.40
2022-10-31T04:14:38.854Z,11.10
2022-10-31T04:17:11.457Z,11.30
2022-10-31T04:19:40.610Z,11.57
2022-10-31T04:22:08.467Z,10.73
2022-10-31T04:24:36.209Z,10.40
2022-10-31T04:27:03.908Z,10.90
2022-10-31T04:29:31.669Z,10.90
2022-10-31T04:31:59.607Z,10.77
2022-10-31T04:34:27.353Z,10.40
2022-10-31T04:36:56.478Z,11.17
2022-10-31T04:39:26.576Z,11.07
2022-10-31T04:41:54.730Z,10.77
2022-10-31T04:44:22.736Z,10.57
2022-10-31T04:46:50.572Z,10.40
2022-10-31T04:49:18.413Z,10.90
2022-10-31T04:51:46.195Z,11.20
2022-10-31T04:54:15.353Z,10.83
2022-10-31T04:56:43.096Z,11.43
2022-10-31T04:59:10.758Z,12.33
2022-10-31T05:01:38.770Z,13.17
2022-10-31T05:04:06.529Z,13.83
2022-10-31T05:06:34.221Z,13.40
2022-10-31T05:09:02.730Z,13.93
2022-10-31T05:11:31.780Z,12.77
2022-10-31T05:13:59.586Z,12.83
2022-10-31T05:16:27.357Z,12.60
2022-10-31T05:18:55.403Z,12.77
2022-10-31T05:21:23.190Z,12.53
2022-10-31T05:23:50.936Z,12.60
2022-10-31T05:26:18.718Z,12.60
2022-10-31T05:28:47.973Z,12.60
2022-10-31T05:31:15.843Z,11.90
2022-10-31T05:33:43.677Z,11.63
2022-10-31T05:36:11.918Z,12.67
2022-10-31T05:38:39.707Z,13.13
2022-10-31T05:41:07.511Z,12.90
2022-10-31T05:43:35.284Z,12.93
2022-10-31T05:46:04.619Z,12.43
2022-10-31T05:48:32.385Z,12.73
2022-10-31T05:51:01.686Z,12.50
2022-10-31T05:53:29.483Z,11.87
2022-10-31T05:55:57.261Z,12.27
2022-10-31T05:58:24.996Z,11.60
2022-10-31T06:00:52.729Z,11.47
2022-10-31T06:03:21.838Z,11.63
2022-10-31T06:05:52.525Z,11.30
2022-10-31T06:08:23.004Z,11.80
2022-10-31T06:10:50.821Z,12.10
2022-10-31T06:13:18.599Z,11.80
2022-10-31T06:15:46.373Z,11.27
2022-10-31T06:18:14.192Z,11.13
2022-10-31T06:20:43.319Z,11.37
2022-10-31T06:23:14.268Z,10.90
2022-10-31T06:25:42.025Z,10.70
2022-10-31T06:28:09.818Z,10.20
2022-10-31T06:30:37.650Z,10.87
2022-10-31T06:33:06.485Z,10.43
2022-10-31T06:35:39.081Z,10.13
2022-10-31T06:38:10.970Z,9.97
2022-10-31T06:40:38.727Z,10.30
2022-10-31T06:43:06.641Z,10.43
2022-10-31T06:45:34.526Z,10.23
2022-10-31T06:48:18.572Z,9.90
2022-10-31T06:50:46.579Z,10.27
2022-10-31T06:53:16.069Z,11.10
2022-10-31T06:55:44.408Z,11.17
2022-10-31T06:58:13.183Z,10.07
2022-10-31T07:00:41.077Z,10.17
2022-10-31T07:03:12.627Z,10.30
2022-10-31T07:05:41.067Z,10.00
2022-10-31T07:08:10.872Z,9.90
2022-10-31T07:10:42.201Z,10.47
2022-10-31T07:13:13.899Z,9.53
2022-10-31T07:15:43.393Z,9.57
2022-10-31T07:18:13.102Z,9.47
2022-10-31T07:20:40.922Z,9.10
2022-10-31T07:23:09.883Z,9.93
2022-10-31T07:25:37.617Z,9.07
2022-10-31T07:28:07.081Z,9.50
2022-10-31T07:30:35.310Z,8.60
2022-10-31T07:33:03.079Z,8.83
2022-10-31T07:35:31.762Z,9.27
2022-10-31T07:38:00.295Z,9.37
2022-10-31T07:40:28.246Z,9.53
2022-10-31T07:42:56.021Z,9.13
2022-10-31T07:45:25.109Z,9.50
2022-10-31T07:47:54.532Z,9.77
2022-10-31T07:50:23.883Z,9.97
2022-10-31T07:53:00.586Z,10.30
2022-10-31T07:55:28.834Z,9.93
2022-10-31T07:58:01.019Z,10.10
2022-10-31T08:00:30.970Z,9.40
2022-10-31T08:03:00.285Z,10.07
2022-10-31T08:05:28.870Z,10.80
2022-10-31T08:07:56.710Z,11.47
2022-10-31T08:10:24.956Z,10.07
2022-10-31T08:12:58.537Z,11.30
2022-10-31T08:15:27.212Z,10.80
2022-10-31T08:17:56.521Z,10.10
2022-10-31T08:20:24.743Z,9.83
2022-10-31T08:22:56.908Z,10.37
2022-10-31T08:25:25.742Z,10.93
2022-10-31T08:27:54.008Z,12.17
2022-10-31T08:30:22.677Z,11.03
2022-10-31T08:33:01.047Z,12.87
2022-10-31T08:35:29.160Z,13.03
2022-10-31T08:37:57.379Z,11.37
2022-10-31T08:40:26.331Z,12.57
2022-10-31T08:42:59.104Z,11.97
2022-10-31T08:45:28.040Z,12.10
2022-10-31T08:47:59.979Z,11.50
2022-10-31T08:50:30.802Z,11.70
2022-10-31T08:53:05.617Z,10.90
2022-10-31T08:55:35.573Z,11.37
2022-10-31T08:58:04.778Z,11.27
2022-10-31T09:00:33.038Z,11.30
2022-10-31T09:03:02.502Z,11.67
2022-10-31T09:05:32.606Z,11.87
2022-10-31T09:08:01.789Z,12.00
2022-10-31T09:10:35.060Z,11.33
2022-10-31T09:13:08.402Z,11.63
2022-10-31T09:15:39.232Z,12.27
2022-10-31T09:18:07.868Z,12.83
2022-10-31T09:20:38.918Z,10.30
2022-10-31T09:23:08.972Z,10.40
2022-10-31T09:25:37.020Z,11.37
2022-10-31T09:28:06.829Z,11.83
2022-10-31T09:30:36.173Z,11.47
2022-10-31T09:33:05.759Z,11.20
2022-10-31T09:35:33.908Z,10.83
2022-10-31T09:38:05.874Z,12.00
2022-10-31T09:40:36.978Z,10.73
2022-10-31T09:43:14.910Z,11.13
2022-10-31T09:45:50.648Z,9.97
2022-10-31T09:48:41.731Z,9.27
2022-10-31T09:51:12.642Z,9.17
2022-10-31T09:53:46.335Z,8.93
2022-10-31T09:56:17.667Z,9.13
2022-10-31T09:58:47.510Z,10.03
2022-10-31T10:01:30.732Z,8.43
2022-10-31T10:04:03.891Z,8.17
2022-10-31T10:06:36.930Z,8.60
2022-10-31T10:09:06.373Z,9.07
2022-10-31T10:11:51.339Z,8.70
2022-10-31T10:14:35.979Z,9.93
2022-10-31T10:17:20.966Z,9.17
2022-10-31T10:20:22.770Z,8.73
2022-10-31T10:22:58.787Z,8.70
2022-10-31T10:25:35.842Z,9.80
2022-10-31T10:28:15.643Z,9.97
2022-10-31T10:30:48.295Z,11.53
2022-10-31T10:33:23.585Z,10.43
2022-10-31T10:35:53.761Z,10.40
2022-10-31T10:38:32.079Z,10.10
2022-10-31T10:41:03.852Z,9.57
2022-10-31T10:43:35.460Z,9.93
2022-10-31T10:46:42.856Z,9.70
2022-10-31T10:49:18.891Z,9.73
2022-10-31T10:52:02.655Z,9.97
2022-10-31T10:55:02.017Z,10.30
2022-10-31T10:57:55.097Z,9.47
2022-10-31T11:00:26.275Z,10.80
2022-10-31T11:02:54.644Z,10.10
2022-10-31T11:05:26.939Z,9.93
2022-10-31T11:07:57.277Z,10.70
2022-10-31T11:10:25.164Z,9.87
2022-10-31T11:13:24.235Z,9.43
2022-10-31T11:15:59.032Z,9.43
2022-10-31T11:18:29.006Z,9.30
2022-10-31T11:20:58.661Z,10.00
2022-10-31T11:23:28.728Z,9.60
2022-10-31T11:25:59.016Z,9.20
2022-10-31T11:28:30.544Z,9.47
2022-10-31T11:31:00.442Z,10.40
2022-10-31T11:33:33.367Z,10.90
2022-10-31T11:36:03.174Z,11.57
2022-10-31T11:38:37.030Z,10.77
2022-10-31T11:41:12.830Z,9.80
2022-10-31T11:43:50.427Z,12.37
2022-10-31T11:46:23.456Z,9.27
2022-10-31T11:48:53.173Z,9.67
2022-10-31T11:51:29.191Z,9.40
2022-10-31T11:54:02.672Z,10.20
2022-10-31T11:56:40.364Z,9.87
2022-10-31T11:59:25.252Z,9.27
2022-10-31T12:01:55.012Z,9.30
2022-10-31T12:04:33.411Z,9.23
2022-10-31T12:07:01.416Z,9.07
2022-10-31T12:09:31.289Z,9.00
2022-10-31T12:12:18.000Z,8.23
2022-10-31T12:14:56.598Z,8.47
2022-10-31T12:17:31.159Z,8.43
2022-10-31T12:20:08.926Z,8.87
2022-10-31T12:22:49.923Z,8.57
2022-10-31T12:25:36.575Z,7.83
2022-10-31T12:28:29.649Z,7.50
2022-10-31T12:31:13.549Z,7.73
2022-10-31T12:33:52.809Z,7.17
2022-10-31T12:36:35.078Z,6.83
2022-10-31T12:39:26.412Z,7.60
2022-10-31T12:42:01.152Z,7.07
2022-10-31T12:44:55.670Z,6.97
2022-10-31T12:47:48.424Z,7.87
2022-10-31T12:50:31.157Z,6.57
2022-10-31T12:53:10.087Z,6.60
2022-10-31T12:55:47.080Z,6.17
2022-10-31T12:58:22.556Z,6.90
2022-10-31T13:00:55.583Z,6.47
2022-10-31T13:03:31.315Z,6.63
2022-10-31T13:06:04.280Z,6.90
2022-10-31T13:08:41.595Z,5.90
2022-10-31T13:11:14.557Z,6.27
2022-10-31T13:13:46.417Z,6.47
2022-10-31T13:16:18.621Z,7.07
2022-10-31T13:18:52.300Z,6.37
2022-10-31T13:21:24.286Z,6.13
2022-10-31T13:23:53.357Z,6.77
2022-10-31T13:26:29.084Z,6.40
2022-10-31T13:29:04.987Z,6.47
2022-10-31T13:31:32.999Z,6.53
2022-10-31T13:34:07.285Z,5.80
2022-10-31T13:36:42.022Z,5.80
2022-10-31T13:39:22.761Z,6.50
2022-10-31T13:41:55.748Z,6.00
2022-10-31T13:44:25.913Z,6.03
2022-10-31T13:46:54.893Z,10.20
2022-10-31T13:49:40.342Z,6.27
2022-10-31T13:52:24.320Z,6.43
2022-10-31T13:54:56.877Z,6.67
2022-10-31T13:57:34.583Z,7.10
2022-10-31T14:00:05.784Z,6.00
2022-10-31T14:02:36.240Z,5.23
2022-10-31T14:05:11.326Z,5.67
2022-10-31T14:07:45.789Z,4.70
2022-10-31T14:10:27.708Z,10.13
2022-10-31T14:13:05.638Z,7.17
2022-10-31T14:15:34.258Z,6.03
2022-10-31T14:18:04.969Z,5.70
2022-10-31T14:20:40.512Z,6.50
2022-10-31T14:23:41.521Z,5.90
2022-10-31T14:26:31.947Z,6.27
2022-10-31T14:29:01.586Z,7.27
2022-10-31T14:31:35.748Z,6.10
2022-10-31T14:34:20.160Z,5.60
2022-10-31T14:37:01.613Z,6.10
2022-10-31T14:39:36.885Z,5.90
2022-10-31T14:42:22.639Z,6.30
2022-10-31T14:45:17.736Z,6.40
2022-10-31T14:48:06.905Z,11.30
2022-10-31T14:50:46.301Z,10.90
2022-10-31T14:53:20.427Z,6.50
2022-10-31T14:55:50.430Z,6.27
2022-10-31T14:58:22.509Z,6.90
2022-10-31T15:00:52.871Z,7.17
2022-10-31T15:03:26.850Z,6.73
2022-10-31T15:05:57.784Z,6.47
2022-10-31T15:08:36.995Z,6.27
2022-10-31T15:11:12.170Z,6.43
2022-10-31T15:13:45.531Z,6.43
2022-10-31T15:16:16.176Z,6.63
2022-10-31T15:18:50.822Z,6.90
2022-10-31T15:21:21.290Z,6.33
2022-10-31T15:23:53.165Z,6.00
2022-10-31T15:26:24.547Z,5.53
2022-10-31T15:29:03.063Z,6.03
2022-10-31T15:31:32.919Z,5.97
2022-10-31T15:34:05.740Z,6.20
2022-10-31T15:36:37.367Z,6.07
2022-10-31T15:39:07.693Z,6.00
2022-10-31T15:41:38.812Z,7.20
2022-10-31T15:44:14.705Z,6.33
2022-10-31T15:46:42.893Z,8.27
2022-10-31T15:49:28.257Z,8.60
2022-10-31T15:52:02.310Z,8.40
2022-10-31T15:54:31.858Z,7.50
2022-10-31T15:56:59.819Z,7.00
2022-10-31T15:59:30.946Z,7.53
2022-10-31T16:02:03.234Z,7.10
2022-10-31T16:04:31.850Z,6.67
2022-10-31T16:07:02.441Z,6.43
2022-10-31T16:09:31.613Z,7.97
2022-10-31T16:12:00.488Z,6.80
2022-10-31T16:14:30.734Z,6.93
2022-10-31T16:17:00.711Z,6.67
2022-10-31T16:19:32.856Z,6.87
2022-10-31T16:22:06.930Z,6.93
2022-10-31T16:24:46.508Z,6.87
2022-10-31T16:27:40.161Z,7.80
2022-10-31T16:30:29.939Z,8.17
2022-10-31T16:32:59.996Z,8.53
2022-10-31T16:35:29.652Z,8.73
2022-10-31T16:37:57.725Z,8.90
2022-10-31T16:40:27.180Z,9.50
2022-10-31T16:42:55.110Z,9.23
2022-10-31T16:45:25.203Z,8.93
2022-10-31T16:47:52.995Z,9.40
2022-10-31T16:50:23.618Z,9.00
2022-10-31T16:53:12.756Z,10.10
2022-10-31T16:55:46.431Z,11.40
2022-10-31T16:58:25.275Z,10.60
2022-10-31T17:00:54.657Z,11.73
2022-10-31T17:03:22.533Z,9.93
2022-10-31T17:05:50.660Z,8.83
2022-10-31T17:08:18.840Z,9.53
2022-10-31T17:10:56.336Z,9.80
2022-10-31T17:13:26.331Z,9.83
2022-10-31T17:15:56.758Z,10.00
2022-10-31T17:18:27.593Z,9.97
2022-10-31T17:20:59.116Z,10.13
2022-10-31T17:23:27.269Z,10.77
2022-10-31T17:25:56.788Z,10.50
2022-10-31T17:28:25.056Z,10.30
2022-10-31T17:30:54.487Z,9.47
2022-10-31T17:33:22.324Z,10.17
2022-10-31T17:35:50.180Z,9.70
2022-10-31T17:38:18.053Z,9.67
2022-10-31T17:40:46.059Z,9.83
2022-10-31T17:43:15.119Z,10.07
2022-10-31T17:45:43.418Z,10.40
2022-10-31T17:48:12.794Z,10.33
2022-10-31T17:50:41.494Z,11.00
2022-10-31T17:53:09.401Z,10.43
2022-10-31T17:55:37.791Z,11.23
2022-10-31T17:58:06.257Z,10.00
2022-10-31T18:00:35.481Z,10.83
2022-10-31T18:03:04.390Z,11.47
2022-10-31T18:05:33.107Z,12.10
2022-10-31T18:08:04.047Z,11.93
2022-10-31T18:10:35.994Z,11.60
2022-10-31T18:13:04.168Z,12.60
2022-10-31T18:15:32.318Z,11.73
2022-10-31T18:18:01.713Z,18.80
2022-10-31T18:20:29.603Z,14.67
2022-10-31T18:22:57.388Z,14.50
2022-10-31T18:25:25.198Z,15.90
2022-10-31T18:27:58.048Z,16.93
2022-10-31T18:30:25.981Z,16.10
2022-10-31T18:32:53.712Z,14.33
2022-10-31T18:35:22.799Z,15.90
2022-10-31T18:37:50.772Z,16.90
2022-10-31T18:40:18.641Z,17.40
2022-10-31T18:42:46.394Z,16.83
2022-10-31T18:45:32.253Z,14.93
2022-10-31T18:48:02.305Z,15.13
2022-10-31T18:50:31.622Z,15.63
2022-10-31T18:52:59.667Z,14.73
2022-10-31T18:55:27.648Z,15.40
2022-10-31T18:57:55.402Z,16.07
2022-10-31T19:00:23.256Z,17.20
2022-10-31T19:02:51.056Z,18.33
2022-10-31T19:05:19.108Z,17.13
2022-10-31T19:07:48.529Z,16.70
2022-10-31T19:10:16.276Z,15.20
2022-10-31T19:12:44.082Z,16.70
2022-10-31T19:15:12.250Z,16.30
2022-10-31T19:17:39.956Z,16.93
2022-10-31T19:20:09.061Z,15.63
2022-10-31T19:22:36.813Z,16.43
2022-10-31T19:25:11.057Z,17.43
2022-10-31T19:27:39.439Z,15.93
2022-10-31T19:30:08.618Z,15.80
2022-10-31T19:32:36.575Z,16.00
2022-10-31T19:35:08.877Z,16.20
2022-10-31T19:37:36.628Z,16.37
2022-10-31T19:40:07.748Z,16.07
2022-10-31T19:42:35.580Z,16.60
2022-10-31T19:45:03.575Z,16.60
2022-10-31T19:47:31.353Z,17.27
2022-10-31T19:49:59.140Z,16.70
2022-10-31T19:52:27.018Z,16.77
2022-10-31T19:54:54.873Z,17.07
2022-10-31T19:57:48.360Z,16.57
2022-10-31T20:00:13.042Z,17.20
2022-10-31T20:02:40.840Z,16.53
2022-10-31T20:05:09.313Z,16.43
2022-10-31T20:07:37.220Z,16.37
2022-10-31T20:10:05.396Z,16.33
2022-10-31T20:12:35.175Z,16.20
2022-10-31T20:15:02.954Z,16.10
2022-10-31T20:17:30.818Z,15.93
2022-10-31T20:19:58.950Z,14.97
2022-10-31T20:22:26.828Z,15.37
2022-10-31T20:24:54.610Z,15.43
2022-10-31T20:27:22.453Z,16.53
2022-10-31T20:29:51.590Z,15.53
2022-10-31T20:32:21.332Z,15.00
2022-10-31T20:34:49.468Z,16.77
2022-10-31T20:37:17.313Z,16.77
2022-10-31T20:39:45.065Z,16.00
2022-10-31T20:42:13.148Z,16.27
2022-10-31T20:44:40.978Z,15.30
2022-10-31T20:47:10.504Z,15.07
2022-10-31T20:49:38.737Z,15.00
2022-10-31T20:52:06.698Z,14.67
2022-10-31T20:54:34.486Z,15.73
2022-10-31T20:57:02.725Z,15.57
2022-10-31T20:59:30.626Z,14.87
2022-10-31T21:02:00.384Z,15.63
2022-10-31T21:04:29.845Z,14.93
2022-10-31T21:06:57.596Z,14.70
2022-10-31T21:09:25.355Z,14.17
2022-10-31T21:11:53.110Z,13.87
2022-10-31T21:14:21.061Z,15.73
2022-10-31T21:16:48.768Z,15.07
2022-10-31T21:19:16.591Z,15.97
2022-10-31T21:21:45.723Z,16.07
2022-10-31T21:24:16.400Z,17.87
2022-10-31T21:26:46.292Z,15.83
2022-10-31T21:29:15.398Z,16.97
2022-10-31T21:31:43.869Z,15.80
2022-10-31T21:34:12.514Z,16.17
2022-10-31T21:36:40.677Z,17.67
2022-10-31T21:39:10.613Z,16.57
2022-10-31T21:41:38.377Z,17.33
2022-10-31T21:44:06.433Z,17.40
2022-10-31T21:46:35.070Z,15.93
2022-10-31T21:49:04.177Z,18.83
2022-10-31T21:51:34.613Z,19.90
2022-10-31T21:54:20.425Z,19.83
2022-10-31T21:56:49.652Z,19.93
2022-10-31T21:59:17.580Z,18.67
2022-10-31T22:01:45.433Z,19.17
2022-10-31T22:04:13.364Z,18.63
2022-10-31T22:06:41.158Z,18.40
2022-10-31T22:09:11.598Z,17.83
2022-10-31T22:11:40.610Z,19.50
2022-10-31T22:14:12.699Z,17.83
2022-10-31T22:16:41.329Z,17.53
2022-10-31T22:19:11.720Z,17.67
2022-10-31T22:21:42.615Z,17.80
2022-10-31T22:24:10.931Z,19.80
2022-10-31T22:26:40.277Z,18.40
2022-10-31T22:29:15.078Z,20.07
2022-10-31T22:31:44.936Z,18.67
2022-10-31T22:34:14.639Z,19.27
2022-10-31T22:36:43.277Z,18.27
2022-10-31T22:39:12.778Z,18.67
2022-10-31T22:41:40.921Z,19.70
2022-10-31T22:44:10.335Z,20.10
2022-10-31T22:46:40.106Z,19.17
2022-10-31T22:49:10.832Z,23.73
2022-10-31T22:51:40.401Z,19.83
2022-10-31T22:54:12.422Z,19.57
2022-10-31T22:56:40.205Z,23.70
2022-10-31T22:59:08.000Z,22.87
2022-10-31T23:01:37.246Z,26.03
2022-10-31T23:04:05.232Z,25.50
2022-10-31T23:06:34.139Z,29.90
2022-10-31T23:09:03.510Z,24.90
2022-10-31T23:11:33.527Z,25.63
2022-10-31T23:14:09.359Z,23.90
2022-10-31T23:16:41.944Z,23.13
2022-10-31T23:19:11.080Z,24.70
2022-10-31T23:21:56.322Z,23.67
2022-10-31T23:24:29.547Z,24.37
2022-10-31T23:27:07.775Z,22.47
2022-10-31T23:29:41.103Z,20.87
2022-10-31T23:32:13.250Z,21.90
2022-10-31T23:34:41.277Z,21.67
2022-10-31T23:37:09.530Z,22.00
2022-10-31T23:39:37.601Z,21.20
2022-10-31T23:42:05.885Z,20.63
2022-10-31T23:44:33.685Z,21.70
2022-10-31T23:47:01.737Z,22.37
2022-10-31T23:49:30.823Z,20.53
2022-10-31T23:51:59.020Z,21.07
2022-10-31T23:54:27.890Z,21.53
2022-10-31T23:56:56.375Z,20.13
2022-10-31T23:59:24.073Z,20.97
